sensor_id;sensor_type;location;lat;lon;timestamp;temperature;humidity
36654;DHT22;22650;49.350;20.898;2023-05-10T00:02:13;2.20;99.90
36654;DHT22;22650;49.350;20.898;2023-05-10T00:05:18;2.20;99.90
36654;DHT22;22650;49.350;20.898;2023-05-10T00:07:52;2.10;99.90
36654;DHT22;22650;49.350;20.898;2023-05-10T00:10:27;2.10;99.90
36654;DHT22;22650;49.350;20.898;2023-05-10T00:13:00;2.00;99.90
36654;DHT22;22650;49.350;20.898;2023-05-10T00:15:36;2.00;99.90
36654;DHT22;22650;49.350;20.898;2023-05-10T00:18:11;2.00;99.90
36654;DHT22;22650;49.350;20.898;2023-05-10T00:20:45;1.90;99.90
36654;DHT22;22650;49.350;20.898;2023-05-10T00:23:21;1.90;99.90
36654;DHT22;22650;49.350;20.898;2023-05-10T00:25:55;1.90;99.90
36654;DHT22;22650;49.350;20.898;2023-05-10T00:28:29;1.80;99.90
36654;DHT22;22650;49.350;20.898;2023-05-10T00:31:04;1.80;99.90
36654;DHT22;22650;49.350;20.898;2023-05-10T00:33:38;1.80;99.90
36654;DHT22;22650;49.350;20.898;2023-05-10T00:36:13;1.70;99.90
36654;DHT22;22650;49.350;20.898;2023-05-10T00:38:47;1.70;99.90
36654;DHT22;22650;49.350;20.898;2023-05-10T00:41:22;1.70;99.90
36654;DHT22;22650;49.350;20.898;2023-05-10T00:43:56;1.60;99.90
36654;DHT22;22650;49.350;20.898;2023-05-10T00:46:32;1.60;99.90
36654;DHT22;22650;49.350;20.898;2023-05-10T00:49:06;1.50;99.90
36654;DHT22;22650;49.350;20.898;2023-05-10T00:51:41;1.50;99.90
36654;DHT22;22650;49.350;20.898;2023-05-10T00:54:15;1.50;99.90
36654;DHT22;22650;49.350;20.898;2023-05-10T00:56:49;1.50;99.90
36654;DHT22;22650;49.350;20.898;2023-05-10T00:59:23;1.50;99.90
36654;DHT22;22650;49.350;20.898;2023-05-10T01:02:00;1.40;99.90
36654;DHT22;22650;49.350;20.898;2023-05-10T01:04:35;1.40;99.90
36654;DHT22;22650;49.350;20.898;2023-05-10T01:07:09;1.40;99.90
36654;DHT22;22650;49.350;20.898;2023-05-10T01:09:43;1.40;99.90
36654;DHT22;22650;49.350;20.898;2023-05-10T01:12:17;1.40;99.90
36654;DHT22;22650;49.350;20.898;2023-05-10T01:14:51;1.40;99.90
36654;DHT22;22650;49.350;20.898;2023-05-10T01:17:27;1.40;99.90
36654;DHT22;22650;49.350;20.898;2023-05-10T01:20:02;1.30;99.90
36654;DHT22;22650;49.350;20.898;2023-05-10T01:23:00;1.30;99.90
36654;DHT22;22650;49.350;20.898;2023-05-10T01:26:03;1.30;99.90
36654;DHT22;22650;49.350;20.898;2023-05-10T01:29:02;1.30;99.90
36654;DHT22;22650;49.350;20.898;2023-05-10T01:32:14;1.20;99.90
36654;DHT22;22650;49.350;20.898;2023-05-10T01:34:56;1.20;99.90
36654;DHT22;22650;49.350;20.898;2023-05-10T01:37:40;1.10;99.90
36654;DHT22;22650;49.350;20.898;2023-05-10T01:40:21;1.10;99.90
36654;DHT22;22650;49.350;20.898;2023-05-10T01:43:01;1.10;99.90
36654;DHT22;22650;49.350;20.898;2023-05-10T01:45:38;1.10;99.90
36654;DHT22;22650;49.350;20.898;2023-05-10T01:48:19;1.10;99.90
36654;DHT22;22650;49.350;20.898;2023-05-10T01:50:53;1.10;99.90
36654;DHT22;22650;49.350;20.898;2023-05-10T01:53:28;1.00;99.90
36654;DHT22;22650;49.350;20.898;2023-05-10T01:56:03;1.00;99.90
36654;DHT22;22650;49.350;20.898;2023-05-10T01:58:39;1.00;99.90
36654;DHT22;22650;49.350;20.898;2023-05-10T02:01:20;1.00;99.90
36654;DHT22;22650;49.350;20.898;2023-05-10T02:03:58;1.00;99.90
36654;DHT22;22650;49.350;20.898;2023-05-10T02:06:34;1.00;99.90
36654;DHT22;22650;49.350;20.898;2023-05-10T02:09:09;1.00;99.90
36654;DHT22;22650;49.350;20.898;2023-05-10T02:11:44;1.00;99.90
36654;DHT22;22650;49.350;20.898;2023-05-10T02:14:19;0.90;99.90
36654;DHT22;22650;49.350;20.898;2023-05-10T02:16:54;0.90;99.90
36654;DHT22;22650;49.350;20.898;2023-05-10T02:19:30;0.90;99.90
36654;DHT22;22650;49.350;20.898;2023-05-10T02:22:06;0.80;99.90
36654;DHT22;22650;49.350;20.898;2023-05-10T02:24:40;0.90;99.90
36654;DHT22;22650;49.350;20.898;2023-05-10T02:27:15;0.80;99.90
36654;DHT22;22650;49.350;20.898;2023-05-10T02:29:51;0.80;99.90
36654;DHT22;22650;49.350;20.898;2023-05-10T02:32:27;0.80;99.90
36654;DHT22;22650;49.350;20.898;2023-05-10T02:35:04;0.80;99.90
36654;DHT22;22650;49.350;20.898;2023-05-10T02:37:38;0.70;99.90
36654;DHT22;22650;49.350;20.898;2023-05-10T02:40:13;0.80;99.90
36654;DHT22;22650;49.350;20.898;2023-05-10T02:42:50;0.70;99.90
36654;DHT22;22650;49.350;20.898;2023-05-10T02:45:28;0.70;99.90
36654;DHT22;22650;49.350;20.898;2023-05-10T02:48:02;0.70;99.90
36654;DHT22;22650;49.350;20.898;2023-05-10T02:50:40;0.70;99.90
36654;DHT22;22650;49.350;20.898;2023-05-10T02:53:21;0.70;99.90
36654;DHT22;22650;49.350;20.898;2023-05-10T02:55:58;0.70;99.90
36654;DHT22;22650;49.350;20.898;2023-05-10T02:58:36;0.60;99.90
36654;DHT22;22650;49.350;20.898;2023-05-10T03:01:09;0.70;99.90
36654;DHT22;22650;49.350;20.898;2023-05-10T03:03:43;0.60;99.90
36654;DHT22;22650;49.350;20.898;2023-05-10T03:06:18;0.60;99.90
36654;DHT22;22650;49.350;20.898;2023-05-10T03:08:52;0.60;99.90
36654;DHT22;22650;49.350;20.898;2023-05-10T03:11:37;0.60;99.90
36654;DHT22;22650;49.350;20.898;2023-05-10T03:14:21;0.60;99.90
36654;DHT22;22650;49.350;20.898;2023-05-10T03:17:04;0.60;99.90
36654;DHT22;22650;49.350;20.898;2023-05-10T03:19:46;0.60;99.90
36654;DHT22;22650;49.350;20.898;2023-05-10T03:22:26;0.60;99.90
36654;DHT22;22650;49.350;20.898;2023-05-10T03:25:05;0.50;99.90
36654;DHT22;22650;49.350;20.898;2023-05-10T03:27:42;0.60;99.90
36654;DHT22;22650;49.350;20.898;2023-05-10T03:30:17;0.50;99.90
36654;DHT22;22650;49.350;20.898;2023-05-10T03:32:51;0.50;99.90
36654;DHT22;22650;49.350;20.898;2023-05-10T03:35:25;0.60;99.90
36654;DHT22;22650;49.350;20.898;2023-05-10T03:38:01;0.60;99.90
36654;DHT22;22650;49.350;20.898;2023-05-10T03:40:35;0.60;99.90
36654;DHT22;22650;49.350;20.898;2023-05-10T03:43:08;0.60;99.90
36654;DHT22;22650;49.350;20.898;2023-05-10T03:45:42;0.60;99.90
36654;DHT22;22650;49.350;20.898;2023-05-10T03:48:16;0.60;99.90
36654;DHT22;22650;49.350;20.898;2023-05-10T03:50:50;0.60;99.90
36654;DHT22;22650;49.350;20.898;2023-05-10T03:53:25;0.60;99.90
36654;DHT22;22650;49.350;20.898;2023-05-10T03:55:59;0.70;99.90
36654;DHT22;22650;49.350;20.898;2023-05-10T03:58:33;0.70;99.90
36654;DHT22;22650;49.350;20.898;2023-05-10T04:01:07;0.70;99.90
36654;DHT22;22650;49.350;20.898;2023-05-10T04:03:41;0.70;99.90
36654;DHT22;22650;49.350;20.898;2023-05-10T04:06:16;0.70;99.90
36654;DHT22;22650;49.350;20.898;2023-05-10T04:08:52;0.70;99.90
36654;DHT22;22650;49.350;20.898;2023-05-10T04:11:26;0.70;99.90
36654;DHT22;22650;49.350;20.898;2023-05-10T04:14:00;0.80;99.90
36654;DHT22;22650;49.350;20.898;2023-05-10T04:16:34;0.80;99.90
36654;DHT22;22650;49.350;20.898;2023-05-10T04:19:07;0.80;99.90
36654;DHT22;22650;49.350;20.898;2023-05-10T04:21:41;0.90;99.90
36654;DHT22;22650;49.350;20.898;2023-05-10T04:24:16;0.90;99.90
36654;DHT22;22650;49.350;20.898;2023-05-10T04:26:50;0.90;99.90
36654;DHT22;22650;49.350;20.898;2023-05-10T04:29:25;1.00;99.90
36654;DHT22;22650;49.350;20.898;2023-05-10T04:31:59;1.00;99.90
36654;DHT22;22650;49.350;20.898;2023-05-10T04:34:33;1.00;99.90
36654;DHT22;22650;49.350;20.898;2023-05-10T04:37:07;1.00;99.90
36654;DHT22;22650;49.350;20.898;2023-05-10T04:39:49;1.10;99.90
36654;DHT22;22650;49.350;20.898;2023-05-10T04:42:25;1.10;99.90
36654;DHT22;22650;49.350;20.898;2023-05-10T04:45:00;1.10;99.90
36654;DHT22;22650;49.350;20.898;2023-05-10T04:47:53;1.20;99.90
36654;DHT22;22650;49.350;20.898;2023-05-10T04:50:38;1.20;99.90
36654;DHT22;22650;49.350;20.898;2023-05-10T04:53:20;1.30;99.90
36654;DHT22;22650;49.350;20.898;2023-05-10T04:56:00;1.40;99.90
36654;DHT22;22650;49.350;20.898;2023-05-10T04:58:34;1.50;99.90
36654;DHT22;22650;49.350;20.898;2023-05-10T05:01:10;1.50;99.90
36654;DHT22;22650;49.350;20.898;2023-05-10T05:03:44;1.60;99.90
36654;DHT22;22650;49.350;20.898;2023-05-10T05:06:17;1.70;99.90
36654;DHT22;22650;49.350;20.898;2023-05-10T05:08:53;1.80;99.90
36654;DHT22;22650;49.350;20.898;2023-05-10T05:11:28;1.80;99.90
36654;DHT22;22650;49.350;20.898;2023-05-10T05:14:02;1.90;99.90
36654;DHT22;22650;49.350;20.898;2023-05-10T05:16:35;2.00;99.90
36654;DHT22;22650;49.350;20.898;2023-05-10T05:19:09;2.10;99.90
36654;DHT22;22650;49.350;20.898;2023-05-10T05:21:43;2.30;99.90
36654;DHT22;22650;49.350;20.898;2023-05-10T05:24:17;2.40;99.90
36654;DHT22;22650;49.350;20.898;2023-05-10T05:26:52;2.50;99.90
36654;DHT22;22650;49.350;20.898;2023-05-10T05:29:26;2.60;99.90
36654;DHT22;22650;49.350;20.898;2023-05-10T05:32:00;2.70;99.90
36654;DHT22;22650;49.350;20.898;2023-05-10T05:34:34;2.90;99.90
36654;DHT22;22650;49.350;20.898;2023-05-10T05:37:13;3.10;99.90
36654;DHT22;22650;49.350;20.898;2023-05-10T05:39:46;3.30;99.90
36654;DHT22;22650;49.350;20.898;2023-05-10T05:42:22;3.60;99.90
36654;DHT22;22650;49.350;20.898;2023-05-10T05:44:55;3.80;99.90
36654;DHT22;22650;49.350;20.898;2023-05-10T05:47:29;4.10;99.90
36654;DHT22;22650;49.350;20.898;2023-05-10T05:50:04;4.40;99.90
36654;DHT22;22650;49.350;20.898;2023-05-10T05:52:42;4.70;99.90
36654;DHT22;22650;49.350;20.898;2023-05-10T05:55:18;5.00;99.90
36654;DHT22;22650;49.350;20.898;2023-05-10T05:57:54;5.20;99.90
36654;DHT22;22650;49.350;20.898;2023-05-10T06:00:28;5.50;99.90
36654;DHT22;22650;49.350;20.898;2023-05-10T06:03:02;5.80;99.90
36654;DHT22;22650;49.350;20.898;2023-05-10T06:05:37;6.10;99.90
36654;DHT22;22650;49.350;20.898;2023-05-10T06:08:12;6.40;99.90
36654;DHT22;22650;49.350;20.898;2023-05-10T06:10:45;6.70;99.90
36654;DHT22;22650;49.350;20.898;2023-05-10T06:13:22;7.00;99.90
36654;DHT22;22650;49.350;20.898;2023-05-10T06:15:56;7.30;99.90
36654;DHT22;22650;49.350;20.898;2023-05-10T06:18:30;7.60;99.90
36654;DHT22;22650;49.350;20.898;2023-05-10T06:21:04;8.00;99.90
36654;DHT22;22650;49.350;20.898;2023-05-10T06:23:38;8.30;99.90
36654;DHT22;22650;49.350;20.898;2023-05-10T06:26:11;8.70;99.90
36654;DHT22;22650;49.350;20.898;2023-05-10T06:28:47;9.10;99.90
36654;DHT22;22650;49.350;20.898;2023-05-10T06:31:21;9.40;99.90
36654;DHT22;22650;49.350;20.898;2023-05-10T06:33:54;9.80;99.90
36654;DHT22;22650;49.350;20.898;2023-05-10T06:36:28;10.30;99.90
36654;DHT22;22650;49.350;20.898;2023-05-10T06:39:02;10.60;99.90
36654;DHT22;22650;49.350;20.898;2023-05-10T06:41:36;11.00;99.90
36654;DHT22;22650;49.350;20.898;2023-05-10T06:44:11;11.30;99.90
36654;DHT22;22650;49.350;20.898;2023-05-10T06:46:45;11.70;99.90
36654;DHT22;22650;49.350;20.898;2023-05-10T06:49:19;12.00;99.90
36654;DHT22;22650;49.350;20.898;2023-05-10T06:51:52;12.40;99.90
36654;DHT22;22650;49.350;20.898;2023-05-10T06:54:27;12.70;99.90
36654;DHT22;22650;49.350;20.898;2023-05-10T06:57:01;13.00;99.90
36654;DHT22;22650;49.350;20.898;2023-05-10T06:59:43;13.40;99.90
36654;DHT22;22650;49.350;20.898;2023-05-10T07:02:17;13.80;99.90
36654;DHT22;22650;49.350;20.898;2023-05-10T07:04:50;14.20;99.90
36654;DHT22;22650;49.350;20.898;2023-05-10T07:07:24;14.60;99.90
36654;DHT22;22650;49.350;20.898;2023-05-10T07:09:58;14.90;99.90
36654;DHT22;22650;49.350;20.898;2023-05-10T07:12:32;15.20;99.90
36654;DHT22;22650;49.350;20.898;2023-05-10T07:15:09;15.40;97.60
36654;DHT22;22650;49.350;20.898;2023-05-10T07:17:43;15.50;87.50
36654;DHT22;22650;49.350;20.898;2023-05-10T07:20:18;15.70;92.90
36654;DHT22;22650;49.350;20.898;2023-05-10T07:22:52;15.90;92.80
36654;DHT22;22650;49.350;20.898;2023-05-10T07:25:26;16.30;93.40
36654;DHT22;22650;49.350;20.898;2023-05-10T07:27:59;16.60;90.70
36654;DHT22;22650;49.350;20.898;2023-05-10T07:30:34;16.90;86.50
36654;DHT22;22650;49.350;20.898;2023-05-10T07:33:09;17.10;83.50
36654;DHT22;22650;49.350;20.898;2023-05-10T07:35:43;17.30;83.70
36654;DHT22;22650;49.350;20.898;2023-05-10T07:38:17;17.60;82.20
36654;DHT22;22650;49.350;20.898;2023-05-10T07:40:51;17.90;79.00
36654;DHT22;22650;49.350;20.898;2023-05-10T07:43:24;18.00;75.80
36654;DHT22;22650;49.350;20.898;2023-05-10T07:45:59;18.20;76.90
36654;DHT22;22650;49.350;20.898;2023-05-10T07:48:33;18.50;75.30
36654;DHT22;22650;49.350;20.898;2023-05-10T07:51:07;18.90;73.80
36654;DHT22;22650;49.350;20.898;2023-05-10T07:53:41;19.30;74.40
36654;DHT22;22650;49.350;20.898;2023-05-10T07:56:23;19.60;73.40
36654;DHT22;22650;49.350;20.898;2023-05-10T07:58:59;19.90;70.50
36654;DHT22;22650;49.350;20.898;2023-05-10T08:01:36;20.00;67.30
36654;DHT22;22650;49.350;20.898;2023-05-10T08:04:09;20.00;63.10
36654;DHT22;22650;49.350;20.898;2023-05-10T08:06:44;20.20;64.90
36654;DHT22;22650;49.350;20.898;2023-05-10T08:09:17;20.20;66.40
36654;DHT22;22650;49.350;20.898;2023-05-10T08:11:56;20.30;65.50
36654;DHT22;22650;49.350;20.898;2023-05-10T08:14:31;20.50;67.80
36654;DHT22;22650;49.350;20.898;2023-05-10T08:17:06;20.50;63.40
36654;DHT22;22650;49.350;20.898;2023-05-10T08:19:40;20.10;59.10
36654;DHT22;22650;49.350;20.898;2023-05-10T08:22:13;20.30;60.10
36654;DHT22;22650;49.350;20.898;2023-05-10T08:24:47;20.30;61.90
36654;DHT22;22650;49.350;20.898;2023-05-10T08:27:21;20.40;61.00
36654;DHT22;22650;49.350;20.898;2023-05-10T08:29:54;20.40;59.10
36654;DHT22;22650;49.350;20.898;2023-05-10T08:32:29;20.20;59.70
36654;DHT22;22650;49.350;20.898;2023-05-10T08:35:03;20.40;61.30
36654;DHT22;22650;49.350;20.898;2023-05-10T08:37:37;20.50;58.40
36654;DHT22;22650;49.350;20.898;2023-05-10T08:40:11;20.70;58.50
36654;DHT22;22650;49.350;20.898;2023-05-10T08:42:51;20.70;57.60
36654;DHT22;22650;49.350;20.898;2023-05-10T08:45:31;20.70;57.80
36654;DHT22;22650;49.350;20.898;2023-05-10T08:48:07;20.60;57.20
36654;DHT22;22650;49.350;20.898;2023-05-10T08:50:42;20.50;58.70
36654;DHT22;22650;49.350;20.898;2023-05-10T08:53:16;20.70;58.70
36654;DHT22;22650;49.350;20.898;2023-05-10T08:55:50;20.70;59.10
36654;DHT22;22650;49.350;20.898;2023-05-10T08:58:25;20.40;57.90
36654;DHT22;22650;49.350;20.898;2023-05-10T09:00:59;20.00;57.60
36654;DHT22;22650;49.350;20.898;2023-05-10T09:03:36;19.90;58.10
36654;DHT22;22650;49.350;20.898;2023-05-10T09:06:12;19.30;57.80
36654;DHT22;22650;49.350;20.898;2023-05-10T09:08:46;19.10;58.70
36654;DHT22;22650;49.350;20.898;2023-05-10T09:11:21;18.90;60.60
36654;DHT22;22650;49.350;20.898;2023-05-10T09:13:55;19.10;60.20
36654;DHT22;22650;49.350;20.898;2023-05-10T09:16:29;19.30;61.30
36654;DHT22;22650;49.350;20.898;2023-05-10T09:19:04;19.20;59.70
36654;DHT22;22650;49.350;20.898;2023-05-10T09:21:41;19.20;60.40
36654;DHT22;22650;49.350;20.898;2023-05-10T09:24:14;19.00;59.90
36654;DHT22;22650;49.350;20.898;2023-05-10T09:26:48;18.70;58.80
36654;DHT22;22650;49.350;20.898;2023-05-10T09:29:22;18.70;60.30
36654;DHT22;22650;49.350;20.898;2023-05-10T09:31:56;18.80;60.50
36654;DHT22;22650;49.350;20.898;2023-05-10T09:34:32;18.70;60.90
36654;DHT22;22650;49.350;20.898;2023-05-10T09:37:07;18.60;60.70
36654;DHT22;22650;49.350;20.898;2023-05-10T09:39:41;18.60;61.40
36654;DHT22;22650;49.350;20.898;2023-05-10T09:42:18;18.50;60.20
36654;DHT22;22650;49.350;20.898;2023-05-10T09:44:53;18.40;61.20
36654;DHT22;22650;49.350;20.898;2023-05-10T09:47:27;18.30;61.00
36654;DHT22;22650;49.350;20.898;2023-05-10T09:50:03;18.50;62.40
36654;DHT22;22650;49.350;20.898;2023-05-10T09:52:46;18.50;62.00
36654;DHT22;22650;49.350;20.898;2023-05-10T09:55:22;18.60;61.60
36654;DHT22;22650;49.350;20.898;2023-05-10T09:58:00;18.90;62.90
36654;DHT22;22650;49.350;20.898;2023-05-10T10:00:35;19.10;62.20
36654;DHT22;22650;49.350;20.898;2023-05-10T10:03:13;19.40;62.10
36654;DHT22;22650;49.350;20.898;2023-05-10T10:05:49;19.40;59.30
36654;DHT22;22650;49.350;20.898;2023-05-10T10:08:23;19.10;59.20
36654;DHT22;22650;49.350;20.898;2023-05-10T10:10:58;19.00;60.30
36654;DHT22;22650;49.350;20.898;2023-05-10T10:13:31;18.70;60.40
36654;DHT22;22650;49.350;20.898;2023-05-10T10:16:06;18.90;62.60
36654;DHT22;22650;49.350;20.898;2023-05-10T10:18:42;18.90;61.30
36654;DHT22;22650;49.350;20.898;2023-05-10T10:21:17;19.00;60.60
36654;DHT22;22650;49.350;20.898;2023-05-10T10:23:51;19.00;61.50
36654;DHT22;22650;49.350;20.898;2023-05-10T10:26:26;19.10;60.70
36654;DHT22;22650;49.350;20.898;2023-05-10T10:29:08;18.90;60.30
36654;DHT22;22650;49.350;20.898;2023-05-10T10:31:46;19.00;60.80
36654;DHT22;22650;49.350;20.898;2023-05-10T10:34:26;18.90;59.30
36654;DHT22;22650;49.350;20.898;2023-05-10T10:37:06;19.20;61.10
36654;DHT22;22650;49.350;20.898;2023-05-10T10:39:39;19.40;61.30
36654;DHT22;22650;49.350;20.898;2023-05-10T10:45:28;19.30;59.80
36654;DHT22;22650;49.350;20.898;2023-05-10T10:48:21;19.30;60.20
36654;DHT22;22650;49.350;20.898;2023-05-10T10:50:58;19.10;59.70
36654;DHT22;22650;49.350;20.898;2023-05-10T10:53:34;19.10;58.80
36654;DHT22;22650;49.350;20.898;2023-05-10T10:56:09;19.10;59.70
36654;DHT22;22650;49.350;20.898;2023-05-10T10:59:05;19.20;60.50
36654;DHT22;22650;49.350;20.898;2023-05-10T11:21:25;18.70;59.10
36654;DHT22;22650;49.350;20.898;2023-05-10T11:24:02;18.50;59.30
36654;DHT22;22650;49.350;20.898;2023-05-10T11:26:38;18.50;61.10
36654;DHT22;22650;49.350;20.898;2023-05-10T11:29:38;18.60;61.40
36654;DHT22;22650;49.350;20.898;2023-05-10T11:32:12;18.50;60.10
36654;DHT22;22650;49.350;20.898;2023-05-10T12:15:53;20.30;61.60
36654;DHT22;22650;49.350;20.898;2023-05-10T12:23:58;19.80;58.00
36654;DHT22;22650;49.350;20.898;2023-05-10T12:27:13;19.60;57.20
36654;DHT22;22650;49.350;20.898;2023-05-10T12:34:30;19.20;60.20
36654;DHT22;22650;49.350;20.898;2023-05-10T12:37:05;19.30;59.10
36654;DHT22;22650;49.350;20.898;2023-05-10T12:39:44;19.40;58.70
36654;DHT22;22650;49.350;20.898;2023-05-10T12:42:22;19.40;59.30
36654;DHT22;22650;49.350;20.898;2023-05-10T12:44:58;19.40;58.90
36654;DHT22;22650;49.350;20.898;2023-05-10T12:47:32;19.40;59.00
36654;DHT22;22650;49.350;20.898;2023-05-10T12:50:08;19.50;60.90
36654;DHT22;22650;49.350;20.898;2023-05-10T12:52:43;19.80;59.10
36654;DHT22;22650;49.350;20.898;2023-05-10T12:55:17;20.00;59.50
36654;DHT22;22650;49.350;20.898;2023-05-10T12:57:50;19.70;57.40
36654;DHT22;22650;49.350;20.898;2023-05-10T13:00:24;19.70;58.50
36654;DHT22;22650;49.350;20.898;2023-05-10T13:02:58;19.30;56.90
36654;DHT22;22650;49.350;20.898;2023-05-10T13:05:35;19.50;58.00
36654;DHT22;22650;49.350;20.898;2023-05-10T13:08:09;19.60;57.90
36654;DHT22;22650;49.350;20.898;2023-05-10T13:10:44;19.70;59.00
36654;DHT22;22650;49.350;20.898;2023-05-10T13:13:17;19.90;59.20
36654;DHT22;22650;49.350;20.898;2023-05-10T13:15:51;20.20;60.00
36654;DHT22;22650;49.350;20.898;2023-05-10T13:18:25;20.30;57.10
36654;DHT22;22650;49.350;20.898;2023-05-10T13:21:01;20.50;58.00
36654;DHT22;22650;49.350;20.898;2023-05-10T13:23:39;20.70;56.50
36654;DHT22;22650;49.350;20.898;2023-05-10T13:26:13;20.50;55.90
36654;DHT22;22650;49.350;20.898;2023-05-10T13:28:47;20.70;56.20
36654;DHT22;22650;49.350;20.898;2023-05-10T13:31:24;20.70;55.60
36654;DHT22;22650;49.350;20.898;2023-05-10T13:33:58;20.60;55.50
36654;DHT22;22650;49.350;20.898;2023-05-10T13:36:35;20.60;55.00
36654;DHT22;22650;49.350;20.898;2023-05-10T13:39:09;20.50;55.70
36654;DHT22;22650;49.350;20.898;2023-05-10T13:41:43;20.60;56.90
36654;DHT22;22650;49.350;20.898;2023-05-10T13:44:17;20.50;56.40
36654;DHT22;22650;49.350;20.898;2023-05-10T13:46:50;20.40;56.40
36654;DHT22;22650;49.350;20.898;2023-05-10T13:49:24;20.50;57.50
36654;DHT22;22650;49.350;20.898;2023-05-10T13:52:00;20.80;59.30
36654;DHT22;22650;49.350;20.898;2023-05-10T13:54:38;20.80;55.00
36654;DHT22;22650;49.350;20.898;2023-05-10T13:57:12;20.90;54.00
36654;DHT22;22650;49.350;20.898;2023-05-10T13:59:46;21.20;55.80
36654;DHT22;22650;49.350;20.898;2023-05-10T14:02:20;21.10;55.70
36654;DHT22;22650;49.350;20.898;2023-05-10T14:04:53;21.10;54.80
36654;DHT22;22650;49.350;20.898;2023-05-10T14:07:29;21.00;54.40
36654;DHT22;22650;49.350;20.898;2023-05-10T14:10:03;20.60;53.50
36654;DHT22;22650;49.350;20.898;2023-05-10T14:12:37;20.50;54.60
36654;DHT22;22650;49.350;20.898;2023-05-10T14:15:11;20.30;55.00
36654;DHT22;22650;49.350;20.898;2023-05-10T14:17:46;20.20;55.30
36654;DHT22;22650;49.350;20.898;2023-05-10T14:20:20;20.10;55.60
36654;DHT22;22650;49.350;20.898;2023-05-10T14:22:55;20.00;56.50
36654;DHT22;22650;49.350;20.898;2023-05-10T14:25:29;19.90;55.20
36654;DHT22;22650;49.350;20.898;2023-05-10T14:28:03;19.80;55.90
36654;DHT22;22650;49.350;20.898;2023-05-10T14:30:37;19.70;56.30
36654;DHT22;22650;49.350;20.898;2023-05-10T14:33:11;19.70;56.50
36654;DHT22;22650;49.350;20.898;2023-05-10T14:35:45;19.90;56.80
36654;DHT22;22650;49.350;20.898;2023-05-10T14:38:20;20.00;56.50
36654;DHT22;22650;49.350;20.898;2023-05-10T14:40:54;20.20;58.10
36654;DHT22;22650;49.350;20.898;2023-05-10T14:43:28;20.40;57.50
36654;DHT22;22650;49.350;20.898;2023-05-10T14:46:02;20.50;56.00
36654;DHT22;22650;49.350;20.898;2023-05-10T14:48:36;20.60;54.60
36654;DHT22;22650;49.350;20.898;2023-05-10T14:51:10;20.30;53.70
36654;DHT22;22650;49.350;20.898;2023-05-10T14:53:46;20.30;54.80
36654;DHT22;22650;49.350;20.898;2023-05-10T14:56:20;20.30;55.20
36654;DHT22;22650;49.350;20.898;2023-05-10T14:58:54;20.50;55.80
36654;DHT22;22650;49.350;20.898;2023-05-10T15:01:29;20.60;55.60
36654;DHT22;22650;49.350;20.898;2023-05-10T15:04:04;20.60;55.00
36654;DHT22;22650;49.350;20.898;2023-05-10T15:06:38;20.50;53.80
36654;DHT22;22650;49.350;20.898;2023-05-10T15:09:13;20.50;54.30
36654;DHT22;22650;49.350;20.898;2023-05-10T15:11:47;20.40;53.80
36654;DHT22;22650;49.350;20.898;2023-05-10T15:14:22;20.40;54.80
36654;DHT22;22650;49.350;20.898;2023-05-10T15:16:56;20.40;55.10
36654;DHT22;22650;49.350;20.898;2023-05-10T15:19:29;20.50;54.70
36654;DHT22;22650;49.350;20.898;2023-05-10T15:22:04;20.50;54.50
36654;DHT22;22650;49.350;20.898;2023-05-10T15:24:40;20.40;54.20
36654;DHT22;22650;49.350;20.898;2023-05-10T15:27:13;20.10;53.40
36654;DHT22;22650;49.350;20.898;2023-05-10T15:29:47;19.90;54.10
36654;DHT22;22650;49.350;20.898;2023-05-10T15:32:20;19.70;54.10
36654;DHT22;22650;49.350;20.898;2023-05-10T15:34:54;19.60;54.60
36654;DHT22;22650;49.350;20.898;2023-05-10T15:37:28;19.70;54.80
36654;DHT22;22650;49.350;20.898;2023-05-10T15:40:04;19.70;55.50
36654;DHT22;22650;49.350;20.898;2023-05-10T15:42:38;19.60;54.60
36654;DHT22;22650;49.350;20.898;2023-05-10T15:45:13;19.60;54.30
36654;DHT22;22650;49.350;20.898;2023-05-10T15:47:47;19.70;55.50
36654;DHT22;22650;49.350;20.898;2023-05-10T15:50:22;19.60;54.90
36654;DHT22;22650;49.350;20.898;2023-05-10T15:52:55;19.70;55.00
36654;DHT22;22650;49.350;20.898;2023-05-10T15:55:31;19.70;54.60
36654;DHT22;22650;49.350;20.898;2023-05-10T15:58:09;19.60;54.40
36654;DHT22;22650;49.350;20.898;2023-05-10T16:00:43;19.60;54.30
36654;DHT22;22650;49.350;20.898;2023-05-10T16:03:19;19.60;53.60
36654;DHT22;22650;49.350;20.898;2023-05-10T16:05:53;19.50;54.50
36654;DHT22;22650;49.350;20.898;2023-05-10T16:08:27;19.30;54.90
36654;DHT22;22650;49.350;20.898;2023-05-10T16:11:03;19.20;54.10
36654;DHT22;22650;49.350;20.898;2023-05-10T16:13:37;19.10;55.00
36654;DHT22;22650;49.350;20.898;2023-05-10T16:16:11;19.00;54.50
36654;DHT22;22650;49.350;20.898;2023-05-10T16:18:45;19.00;55.40
36654;DHT22;22650;49.350;20.898;2023-05-10T16:21:19;18.80;55.00
36654;DHT22;22650;49.350;20.898;2023-05-10T16:23:53;18.80;54.60
36654;DHT22;22650;49.350;20.898;2023-05-10T16:26:28;18.70;55.10
36654;DHT22;22650;49.350;20.898;2023-05-10T16:29:02;18.60;56.00
36654;DHT22;22650;49.350;20.898;2023-05-10T16:31:36;18.60;55.70
36654;DHT22;22650;49.350;20.898;2023-05-10T16:34:10;18.60;56.10
36654;DHT22;22650;49.350;20.898;2023-05-10T16:36:44;18.50;56.10
36654;DHT22;22650;49.350;20.898;2023-05-10T16:39:17;18.50;56.50
36654;DHT22;22650;49.350;20.898;2023-05-10T16:41:53;18.40;56.20
36654;DHT22;22650;49.350;20.898;2023-05-10T16:44:27;18.40;58.00
36654;DHT22;22650;49.350;20.898;2023-05-10T16:47:05;18.30;56.30
36654;DHT22;22650;49.350;20.898;2023-05-10T16:49:39;18.10;56.20
36654;DHT22;22650;49.350;20.898;2023-05-10T16:52:13;18.00;56.90
36654;DHT22;22650;49.350;20.898;2023-05-10T16:54:47;17.80;57.70
36654;DHT22;22650;49.350;20.898;2023-05-10T16:57:30;17.80;59.50
36654;DHT22;22650;49.350;20.898;2023-05-10T17:00:08;17.70;58.40
36654;DHT22;22650;49.350;20.898;2023-05-10T17:02:45;17.60;58.60
36654;DHT22;22650;49.350;20.898;2023-05-10T17:05:20;17.60;58.50
36654;DHT22;22650;49.350;20.898;2023-05-10T17:07:54;17.60;58.70
36654;DHT22;22650;49.350;20.898;2023-05-10T17:10:30;17.60;58.90
36654;DHT22;22650;49.350;20.898;2023-05-10T17:13:05;17.50;59.60
36654;DHT22;22650;49.350;20.898;2023-05-10T17:15:42;17.40;59.10
36654;DHT22;22650;49.350;20.898;2023-05-10T17:18:18;17.30;59.80
36654;DHT22;22650;49.350;20.898;2023-05-10T17:20:52;17.10;58.60
36654;DHT22;22650;49.350;20.898;2023-05-10T17:23:27;16.90;58.90
36654;DHT22;22650;49.350;20.898;2023-05-10T17:26:03;16.80;60.50
36654;DHT22;22650;49.350;20.898;2023-05-10T17:28:39;16.70;60.50
36654;DHT22;22650;49.350;20.898;2023-05-10T17:31:15;16.50;60.30